Time;durP1;ratioP1;P1;durP2;ratioP2;P2;SDS_P1;SDS_P2;PMS_P1;PMS_P2;Temp;Humidity;BMP_temperature;BMP_pressure;BME280_temperature;BME280_humidity;BME280_pressure;Samples;Min_cycle;Max_cycle;Signal;HPM_P1;HPM_P2
2022/04/02 00:00:33;;;;;;;10.55;6.20;;;;;;;;;;8294059;28;20044;-87
2022/04/02 00:04:41;;;;;;;11.90;6.03;;;;;;;;;;8296883;28;20052;-86
2022/04/02 00:08:45;;;;;;;9.10;5.63;;;;;;;;;;8297236;28;20116;-87
2022/04/02 00:12:48;;;;;;;10.77;5.88;;;;;;;;;;8297304;28;20516;-87
2022/04/02 00:16:50;;;;;;;8.57;5.60;;;;;;;;;;8296795;28;20049;-87
2022/04/02 00:20:53;;;;;;;9.57;6.22;;;;;;;;;;8295248;28;20054;-85
2022/04/02 00:24:57;;;;;;;10.50;6.82;;;;;;;;;;8290994;28;20493;-87
2022/04/02 00:29:00;;;;;;;11.10;5.55;;;;;;;;;;8296545;28;20100;-85
2022/04/02 00:33:02;;;;;;;12.27;5.75;;;;;;;;;;8297121;28;20099;-88
2022/04/02 00:37:05;;;;;;;11.35;5.97;;;;;;;;;;8297020;28;20552;-87
2022/04/02 00:41:09;;;;;;;10.35;6.03;;;;;;;;;;8296752;28;20038;-88
2022/04/02 00:45:12;;;;;;;8.38;5.45;;;;;;;;;;8293332;28;20386;-86
2022/04/02 00:49:16;;;;;;;8.63;5.50;;;;;;;;;;8296939;28;20490;-86
2022/04/02 00:53:19;;;;;;;9.13;5.50;;;;;;;;;;8300455;28;20052;-86
2022/04/02 00:57:24;;;;;;;9.50;6.03;;;;;;;;;;8296819;28;20052;-87
2022/04/02 01:01:27;;;;;;;8.55;5.72;;;;;;;;;;8296820;28;20081;-85
2022/04/02 01:05:30;;;;;;;9.35;5.78;;;;;;;;;;8296326;28;20512;-84
2022/04/02 01:09:33;;;;;;;8.10;5.05;;;;;;;;;;8298704;28;20041;-85
2022/04/02 01:13:37;;;;;;;9.10;5.80;;;;;;;;;;8298836;28;20473;-84
2022/04/02 01:17:40;;;;;;;9.50;5.68;;;;;;;;;;8301866;28;20065;-83
2022/04/02 01:21:46;;;;;;;9.55;6.22;;;;;;;;;;8303007;28;20501;-85
2022/04/02 01:25:49;;;;;;;12.25;6.45;;;;;;;;;;8302421;28;20112;-85
2022/04/02 01:29:52;;;;;;;9.60;6.15;;;;;;;;;;8301734;28;20049;-84
2022/04/02 01:33:55;;;;;;;9.25;6.07;;;;;;;;;;8302670;28;20050;-85
2022/04/02 01:37:59;;;;;;;9.43;5.57;;;;;;;;;;8302268;28;20121;-85
2022/04/02 01:42:06;;;;;;;9.30;5.32;;;;;;;;;;8300243;28;20050;-85
2022/04/02 01:46:09;;;;;;;9.98;5.47;;;;;;;;;;8301667;28;20038;-87
2022/04/02 01:50:11;;;;;;;8.50;5.53;;;;;;;;;;8301809;28;20049;-87
2022/04/02 01:54:17;;;;;;;9.38;6.03;;;;;;;;;;8300942;28;20046;-85
2022/04/02 01:58:20;;;;;;;10.20;5.38;;;;;;;;;;8301484;28;20041;-87
2022/04/02 02:02:22;;;;;;;9.77;5.85;;;;;;;;;;8301066;28;20048;-85
2022/04/02 02:06:25;;;;;;;10.00;5.43;;;;;;;;;;8301640;28;20402;-87
2022/04/02 02:10:29;;;;;;;10.73;6.40;;;;;;;;;;8301093;28;20169;-86
2022/04/02 02:14:32;;;;;;;10.00;5.80;;;;;;;;;;8300976;28;21791;-85
2022/04/02 02:18:35;;;;;;;9.75;6.22;;;;;;;;;;8300904;28;20127;-85
2022/04/02 02:22:38;;;;;;;10.93;6.50;;;;;;;;;;8301146;28;20096;-86
2022/04/02 02:26:42;;;;;;;10.52;6.07;;;;;;;;;;8299640;28;20060;-86
2022/04/02 02:30:45;;;;;;;10.30;6.28;;;;;;;;;;8300376;28;20042;-85
2022/04/02 02:39:07;;;;;;;11.02;6.13;;;;;;;;;;8296893;28;20050;-85
2022/04/02 02:43:12;;;;;;;9.95;5.45;;;;;;;;;;8299981;28;20572;-84
2022/04/02 02:47:14;;;;;;;10.55;5.88;;;;;;;;;;8299829;28;20382;-89
2022/04/02 02:51:17;;;;;;;8.30;5.30;;;;;;;;;;8284628;28;20042;-86
2022/04/02 02:55:19;;;;;;;8.95;5.55;;;;;;;;;;8285595;28;20197;-87
2022/04/02 02:59:23;;;;;;;9.45;5.05;;;;;;;;;;8287992;28;20049;-85
2022/04/02 03:03:27;;;;;;;10.20;5.75;;;;;;;;;;8297526;28;20057;-86
2022/04/02 03:07:36;;;;;;;10.70;5.32;;;;;;;;;;8299569;28;20042;-85
2022/04/02 03:11:38;;;;;;;9.70;6.25;;;;;;;;;;8299334;28;20383;-86
2022/04/02 03:15:43;;;;;;;8.50;4.65;;;;;;;;;;8298334;28;20042;-85
2022/04/02 03:19:46;;;;;;;10.00;5.55;;;;;;;;;;8298693;28;20096;-86
2022/04/02 03:23:49;;;;;;;10.38;5.60;;;;;;;;;;8299148;28;20133;-84
2022/04/02 03:27:53;;;;;;;10.00;6.03;;;;;;;;;;8298313;28;20058;-86
2022/04/02 03:31:58;;;;;;;8.93;5.60;;;;;;;;;;8297824;28;20125;-87
2022/04/02 03:36:01;;;;;;;9.38;4.85;;;;;;;;;;8298426;28;20433;-85
2022/04/02 03:40:07;;;;;;;9.85;5.32;;;;;;;;;;8298183;28;20045;-85
2022/04/02 03:44:10;;;;;;;8.93;5.25;;;;;;;;;;8297673;28;20045;-85
2022/04/02 03:48:14;;;;;;;8.68;5.47;;;;;;;;;;8297557;28;20077;-87
2022/04/02 03:52:17;;;;;;;7.85;5.07;;;;;;;;;;8297831;28;20050;-87
2022/04/02 03:56:19;;;;;;;9.10;4.60;;;;;;;;;;8298376;28;20091;-86
2022/04/02 04:00:22;;;;;;;9.13;5.30;;;;;;;;;;8297680;28;20050;-85
2022/04/02 04:04:27;;;;;;;9.85;5.35;;;;;;;;;;8298357;28;20046;-87
2022/04/02 04:08:30;;;;;;;11.00;5.97;;;;;;;;;;8297953;28;20657;-87
2022/04/02 04:12:32;;;;;;;9.57;5.25;;;;;;;;;;8292534;28;20050;-85
2022/04/02 04:16:35;;;;;;;9.50;5.60;;;;;;;;;;8299055;28;20057;-86
2022/04/02 04:20:39;;;;;;;9.77;4.68;;;;;;;;;;8297773;28;20481;-86
2022/04/02 04:24:42;;;;;;;10.18;5.57;;;;;;;;;;8297090;28;20077;-85
2022/04/02 04:28:44;;;;;;;8.25;5.15;;;;;;;;;;8297560;28;20045;-86
2022/04/02 04:32:47;;;;;;;10.15;5.90;;;;;;;;;;8297347;28;20113;-85
2022/04/02 04:36:52;;;;;;;8.52;5.43;;;;;;;;;;8296583;28;20048;-86
2022/04/02 04:40:54;;;;;;;8.57;5.35;;;;;;;;;;8300054;28;20405;-86
2022/04/02 04:44:57;;;;;;;9.73;5.55;;;;;;;;;;8298654;28;20100;-85
2022/04/02 04:49:00;;;;;;;11.80;7.05;;;;;;;;;;8303648;28;20115;-83
2022/04/02 04:53:04;;;;;;;9.57;5.25;;;;;;;;;;8303207;28;20148;-84
2022/04/02 04:57:06;;;;;;;9.27;5.35;;;;;;;;;;8303353;28;20121;-86
2022/04/02 05:01:10;;;;;;;8.10;5.22;;;;;;;;;;8302850;28;20051;-85
2022/04/02 05:05:13;;;;;;;7.65;4.53;;;;;;;;;;8298462;28;20059;-86
2022/04/02 05:09:17;;;;;;;8.07;4.72;;;;;;;;;;8285207;28;20065;-86
2022/04/02 05:13:20;;;;;;;8.60;4.68;;;;;;;;;;8302384;28;20617;-84
2022/04/02 05:17:25;;;;;;;8.40;5.10;;;;;;;;;;8302672;28;20050;-86
2022/04/02 05:21:32;;;;;;;9.38;5.07;;;;;;;;;;8302008;28;20037;-87
2022/04/02 05:25:40;;;;;;;9.05;5.22;;;;;;;;;;8301610;28;20065;-86
2022/04/02 05:29:43;;;;;;;7.70;4.75;;;;;;;;;;8301312;28;20486;-86
2022/04/02 05:33:58;;;;;;;8.93;5.35;;;;;;;;;;8302050;28;20051;-87
2022/04/02 05:38:00;;;;;;;8.23;5.18;;;;;;;;;;8302246;28;20073;-85
2022/04/02 05:42:06;;;;;;;10.02;6.25;;;;;;;;;;8302243;28;20107;-88
2022/04/02 05:46:11;;;;;;;12.57;7.28;;;;;;;;;;8301852;28;20042;-85
2022/04/02 05:50:16;;;;;;;8.50;5.35;;;;;;;;;;8301082;28;20100;-83
2022/04/02 05:54:19;;;;;;;8.77;5.05;;;;;;;;;;8289493;28;20070;-86
2022/04/02 05:58:24;;;;;;;12.95;6.05;;;;;;;;;;8288562;28;20053;-84
2022/04/02 06:02:27;;;;;;;13.13;6.22;;;;;;;;;;8301568;28;20042;-86
2022/04/02 06:06:30;;;;;;;15.93;8.43;;;;;;;;;;8301246;28;20448;-83
2022/04/02 06:10:33;;;;;;;14.55;6.80;;;;;;;;;;8300438;28;20053;-85
2022/04/02 06:14:37;;;;;;;9.63;5.50;;;;;;;;;;8300357;28;20071;-82
2022/04/02 06:18:40;;;;;;;8.93;5.57;;;;;;;;;;8299889;28;20088;-82
2022/04/02 06:22:43;;;;;;;12.32;5.35;;;;;;;;;;8300294;28;20084;-81
2022/04/02 06:26:45;;;;;;;9.38;5.55;;;;;;;;;;8301263;28;20085;-81
2022/04/02 06:30:50;;;;;;;9.30;5.30;;;;;;;;;;8300123;28;20041;-82
2022/04/02 06:34:52;;;;;;;9.95;5.22;;;;;;;;;;8298946;28;20197;-82
2022/04/02 06:38:55;;;;;;;9.40;5.55;;;;;;;;;;8297917;28;20172;-84
2022/04/02 06:42:58;;;;;;;8.82;5.60;;;;;;;;;;8282168;28;20069;-82
2022/04/02 06:47:03;;;;;;;9.90;5.22;;;;;;;;;;8295173;28;20474;-84
2022/04/02 06:51:07;;;;;;;9.52;5.35;;;;;;;;;;8298774;28;20042;-83
2022/04/02 06:55:12;;;;;;;10.98;5.95;;;;;;;;;;8297029;28;20049;-86
2022/04/02 06:59:15;;;;;;;10.95;5.50;;;;;;;;;;8298104;28;20041;-87
2022/04/02 07:03:22;;;;;;;9.10;5.45;;;;;;;;;;8293594;28;20042;-87
2022/04/02 07:07:26;;;;;;;8.20;4.93;;;;;;;;;;8288493;28;20060;-89
2022/04/02 07:11:29;;;;;;;10.90;6.45;;;;;;;;;;8299529;28;20045;-90
2022/04/02 07:15:34;;;;;;;9.30;5.30;;;;;;;;;;8299990;28;20046;-88
2022/04/02 07:19:43;;;;;;;10.25;5.35;;;;;;;;;;8298656;28;20399;-91
2022/04/02 07:23:47;;;;;;;7.65;4.63;;;;;;;;;;8299258;28;20072;-88
2022/04/02 07:27:52;;;;;;;8.45;5.03;;;;;;;;;;8293028;28;20486;-90
2022/04/02 07:31:56;;;;;;;11.38;6.18;;;;;;;;;;8295962;28;20046;-90
2022/04/02 07:36:09;;;;;;;10.13;5.38;;;;;;;;;;8298991;28;20042;-90
2022/04/02 07:40:15;;;;;;;;;;;;;;;;;;8282572;28;20115;-91
2022/04/02 07:44:29;;;;;;;10.13;5.35;;;;;;;;;;8298735;28;20419;-90
2022/04/02 07:48:33;;;;;;;16.48;8.02;;;;;;;;;;8290622;28;20047;-84
2022/04/02 07:52:41;;;;;;;11.18;7.00;;;;;;;;;;8293634;28;20057;-88
2022/04/02 07:56:49;;;;;;;73.80;21.45;;;;;;;;;;8291059;28;20038;-85
2022/04/02 08:00:56;;;;;;;22.02;8.23;;;;;;;;;;8295226;28;20069;-86
2022/04/02 08:05:05;;;;;;;23.42;11.45;;;;;;;;;;8293132;28;20050;-86
2022/04/02 08:09:15;;;;;;;15.32;7.15;;;;;;;;;;8296616;28;20050;-87
2022/04/02 08:13:18;;;;;;;24.58;13.05;;;;;;;;;;8254286;28;20414;-88
2022/04/02 08:17:22;;;;;;;12.38;7.47;;;;;;;;;;8292120;28;20041;-86
2022/04/02 08:21:26;;;;;;;12.35;6.85;;;;;;;;;;8294628;28;20038;-88
2022/04/02 08:25:32;;;;;;;11.00;6.32;;;;;;;;;;8278597;28;20125;-89
2022/04/02 08:29:53;;;;;;;10.00;5.82;;;;;;;;;;8280031;28;20042;-88
2022/04/02 08:34:19;;;;;;;11.53;6.20;;;;;;;;;;8286331;28;20052;-87
2022/04/02 08:38:32;;;;;;;14.65;6.20;;;;;;;;;;8279598;28;20305;-87
2022/04/02 08:43:14;;;;;;;10.50;6.18;;;;;;;;;;8291018;28;20048;-86
2022/04/02 08:47:40;;;;;;;9.15;5.80;;;;;;;;;;8297834;28;20460;-89
2022/04/02 08:51:45;;;;;;;10.27;5.97;;;;;;;;;;8280604;28;20097;-91
2022/04/02 08:55:50;;;;;;;21.48;10.25;;;;;;;;;;8292360;28;20502;-90
2022/04/02 09:00:05;;;;;;;18.63;9.68;;;;;;;;;;8283666;28;20054;-93
2022/04/02 09:04:39;;;;;;;26.70;11.95;;;;;;;;;;8286655;28;20061;-90
2022/04/02 09:09:04;;;;;;;13.60;6.22;;;;;;;;;;8285821;28;20506;-93
2022/04/02 09:13:36;;;;;;;8.18;5.07;;;;;;;;;;8283779;28;20516;-90
2022/04/02 09:18:01;;;;;;;9.35;6.22;;;;;;;;;;8270978;28;20054;-93
2022/04/02 09:22:08;;;;;;;13.20;6.32;;;;;;;;;;8290886;28;20478;-93
2022/04/02 09:26:45;;;;;;;11.75;6.25;;;;;;;;;;8290564;28;20053;-87
2022/04/02 09:31:28;;;;;;;10.02;5.35;;;;;;;;;;8279714;28;20236;-86
2022/04/02 09:36:06;;;;;;;9.35;5.75;;;;;;;;;;8276749;28;20445;-88
2022/04/02 09:40:12;;;;;;;11.27;5.57;;;;;;;;;;8313978;28;20402;-87
2022/04/02 09:44:41;;;;;;;10.27;5.53;;;;;;;;;;8289494;28;20048;-88
2022/04/02 09:48:55;;;;;;;9.82;5.30;;;;;;;;;;8291460;28;20061;-86
2022/04/02 09:53:12;;;;;;;11.25;6.38;;;;;;;;;;8290860;28;20065;-87
2022/04/02 09:57:27;;;;;;;10.25;6.00;;;;;;;;;;8278884;28;20041;-88
2022/04/02 10:01:32;;;;;;;11.25;5.30;;;;;;;;;;8257137;28;20050;-86
2022/04/02 10:05:54;;;;;;;13.23;6.43;;;;;;;;;;8304406;28;20568;-86
2022/04/02 10:10:02;;;;;;;12.60;6.63;;;;;;;;;;8294886;28;20048;-88
2022/04/02 10:14:10;;;;;;;10.88;6.03;;;;;;;;;;8300685;28;20108;-87
2022/04/02 10:18:20;;;;;;;10.48;5.63;;;;;;;;;;8294911;28;20486;-85
2022/04/02 10:22:38;;;;;;;12.48;6.40;;;;;;;;;;8286323;28;20056;-88
2022/04/02 10:26:50;;;;;;;13.23;6.50;;;;;;;;;;8299224;28;20065;-84
2022/04/02 10:30:58;;;;;;;10.20;6.55;;;;;;;;;;8297576;28;20052;-89
2022/04/02 10:35:22;;;;;;;10.50;5.78;;;;;;;;;;8294696;28;20064;-89
2022/04/02 10:39:31;;;;;;;12.50;6.70;;;;;;;;;;8295678;28;20172;-86
2022/04/02 10:43:48;;;;;;;11.75;6.85;;;;;;;;;;8299989;28;20410;-89
2022/04/02 10:48:10;;;;;;;10.38;6.57;;;;;;;;;;8289701;28;20482;-89
2022/04/02 10:52:16;;;;;;;10.10;5.90;;;;;;;;;;8281326;28;20510;-89
2022/04/02 10:56:25;;;;;;;9.40;5.70;;;;;;;;;;8282132;28;20045;-89
2022/04/02 11:00:32;;;;;;;10.02;5.93;;;;;;;;;;8283460;28;20126;-89
2022/04/02 11:05:01;;;;;;;21.02;10.20;;;;;;;;;;8273107;28;20482;-90
2022/04/02 11:09:28;;;;;;;10.18;6.60;;;;;;;;;;8313995;28;20049;-91
2022/04/02 11:13:34;;;;;;;11.57;6.15;;;;;;;;;;8308026;28;20125;-92
2022/04/02 11:17:42;;;;;;;12.75;6.47;;;;;;;;;;8309455;28;20049;-89
2022/04/02 11:21:54;;;;;;;12.38;7.53;;;;;;;;;;8303444;28;20061;-86
2022/04/02 11:26:04;;;;;;;12.98;6.75;;;;;;;;;;8299362;28;20054;-85
2022/04/02 11:30:09;;;;;;;11.32;6.68;;;;;;;;;;8298463;28;20042;-88
2022/04/02 11:34:19;;;;;;;11.38;6.03;;;;;;;;;;8301045;28;20156;-86
2022/04/02 11:38:32;;;;;;;16.50;6.85;;;;;;;;;;8302415;28;20076;-88
2022/04/02 11:42:38;;;;;;;12.20;6.57;;;;;;;;;;8300172;28;20050;-88
2022/04/02 11:46:56;;;;;;;10.93;6.93;;;;;;;;;;8282068;28;20046;-90
2022/04/02 11:51:15;;;;;;;11.27;6.60;;;;;;;;;;8300526;28;20050;-89
2022/04/02 11:55:19;;;;;;;16.70;8.63;;;;;;;;;;8300341;28;20493;-90
2022/04/02 11:59:23;;;;;;;11.48;7.40;;;;;;;;;;8299656;28;20099;-89
2022/04/02 12:03:30;;;;;;;15.77;9.57;;;;;;;;;;8299132;28;20103;-91
2022/04/02 12:07:42;;;;;;;13.30;7.60;;;;;;;;;;8299666;28;20529;-86
2022/04/02 12:11:51;;;;;;;18.65;10.38;;;;;;;;;;8300509;28;20073;-82
2022/04/02 12:16:08;;;;;;;19.38;10.35;;;;;;;;;;8299817;28;20049;-88
2022/04/02 12:20:15;;;;;;;12.98;7.55;;;;;;;;;;8299451;28;20061;-89
2022/04/02 12:24:20;;;;;;;11.60;6.47;;;;;;;;;;8299065;28;20297;-90
2022/04/02 12:28:24;;;;;;;12.88;7.90;;;;;;;;;;8299750;28;20042;-91
2022/04/02 12:32:33;;;;;;;13.38;7.38;;;;;;;;;;8300053;28;20409;-89
2022/04/02 12:36:38;;;;;;;14.77;7.38;;;;;;;;;;8299750;28;20041;-87
2022/04/02 12:40:44;;;;;;;13.63;7.47;;;;;;;;;;8299066;28;20046;-86
2022/04/02 12:44:47;;;;;;;12.60;7.10;;;;;;;;;;8299256;28;20132;-90
2022/04/02 12:48:51;;;;;;;10.07;6.35;;;;;;;;;;8299202;28;20506;-88
2022/04/02 12:52:54;;;;;;;10.63;6.25;;;;;;;;;;8283178;28;20394;-90
2022/04/02 12:57:13;;;;;;;13.68;7.80;;;;;;;;;;8300211;28;20180;-89
2022/04/02 13:01:18;;;;;;;10.93;6.75;;;;;;;;;;8300938;28;20125;-87
2022/04/02 13:05:24;;;;;;;18.52;9.02;;;;;;;;;;8302484;28;20497;-86
2022/04/02 13:09:33;;;;;;;12.52;7.72;;;;;;;;;;8307285;28;20088;-85
2022/04/02 13:13:42;;;;;;;25.50;13.00;;;;;;;;;;8308626;28;20042;-87
2022/04/02 13:22:12;;;;;;;13.85;7.22;;;;;;;;;;8306671;28;20406;-88
2022/04/02 13:26:30;;;;;;;14.80;8.13;;;;;;;;;;8306757;28;20563;-85
2022/04/02 13:30:37;;;;;;;21.95;10.15;;;;;;;;;;8306937;28;20058;-86
2022/04/02 13:34:45;;;;;;;19.40;9.60;;;;;;;;;;8304728;28;20049;-87
2022/04/02 13:38:55;;;;;;;12.65;7.38;;;;;;;;;;8304287;28;20509;-86
2022/04/02 13:43:03;;;;;;;15.15;8.63;;;;;;;;;;8304696;28;20057;-88
2022/04/02 13:47:11;;;;;;;13.10;8.32;;;;;;;;;;8304995;28;20046;-89
2022/04/02 13:51:15;;;;;;;13.73;8.23;;;;;;;;;;8303604;28;20046;-87
2022/04/02 13:55:28;;;;;;;13.65;7.47;;;;;;;;;;8300936;28;20038;-88
2022/04/02 13:59:32;;;;;;;11.77;7.45;;;;;;;;;;8300758;28;20572;-86
2022/04/02 14:03:39;;;;;;;11.65;7.20;;;;;;;;;;8294151;28;20464;-86
2022/04/02 14:08:14;;;;;;;11.82;7.45;;;;;;;;;;8324371;28;20049;-85
2022/04/02 14:12:53;;;;;;;17.83;8.70;;;;;;;;;;8334423;28;20076;-86
2022/04/02 14:17:20;;;;;;;13.15;7.38;;;;;;;;;;8333821;28;20052;-86
2022/04/02 14:27:20;;;;;;;18.30;8.55;;;;;;;;;;8333813;28;20580;-89
2022/04/02 14:32:36;;;;;;;13.30;8.82;;;;;;;;;;8318094;28;20136;-87
2022/04/02 14:37:45;;;;;;;12.05;8.27;;;;;;;;;;8242329;28;20797;-89
2022/04/02 14:42:36;;;;;;;22.38;11.43;;;;;;;;;;8295424;28;20041;-85
2022/04/02 14:47:50;;;;;;;16.98;9.70;;;;;;;;;;8268298;28;20042;-86
2022/04/02 14:52:36;;;;;;;18.42;9.68;;;;;;;;;;8271043;28;20046;-86
2022/04/02 14:57:44;;;;;;;19.25;10.52;;;;;;;;;;8288462;28;20046;-86
2022/04/02 15:02:43;;;;;;;22.02;10.73;;;;;;;;;;8274623;28;20121;-87
2022/04/02 15:07:45;;;;;;;35.95;18.02;;;;;;;;;;8268182;28;20101;-88
2022/04/02 15:12:21;;;;;;;22.90;11.35;;;;;;;;;;8297627;28;20746;-87
2022/04/02 15:16:41;;;;;;;30.10;13.32;;;;;;;;;;8285194;28;20401;-90
2022/04/02 15:21:46;;;;;;;15.85;8.55;;;;;;;;;;8282171;28;20068;-84
2022/04/02 15:26:23;;;;;;;15.93;8.40;;;;;;;;;;8258536;28;20431;-84
2022/04/02 15:30:36;;;;;;;27.33;12.05;;;;;;;;;;8252361;28;20508;-83
2022/04/02 15:34:51;;;;;;;23.23;10.82;;;;;;;;;;8252500;28;20065;-84
2022/04/02 15:38:58;;;;;;;130.02;40.58;;;;;;;;;;8252891;28;20605;-82
2022/04/02 15:43:12;;;;;;;15.32;9.25;;;;;;;;;;8249708;28;20062;-84
2022/04/02 15:47:41;;;;;;;18.98;9.57;;;;;;;;;;8254373;28;20066;-83
2022/04/02 15:52:18;;;;;;;21.85;11.02;;;;;;;;;;8252520;28;20090;-83
2022/04/02 15:56:31;;;;;;;20.52;9.57;;;;;;;;;;8263208;28;20084;-82
2022/04/02 16:00:45;;;;;;;16.48;8.95;;;;;;;;;;8261658;28;20490;-84
2022/04/02 16:05:12;;;;;;;70.93;22.52;;;;;;;;;;8252655;28;20108;-84
2022/04/02 16:09:56;;;;;;;13.75;7.32;;;;;;;;;;8258491;28;20069;-84
2022/04/02 16:14:09;;;;;;;16.02;7.63;;;;;;;;;;8260463;28;20831;-87
2022/04/02 16:18:28;;;;;;;19.65;9.88;;;;;;;;;;8233771;28;20860;-87
2022/04/02 16:22:37;;;;;;;30.83;11.90;;;;;;;;;;8259054;28;20145;-84
2022/04/02 16:26:56;;;;;;;22.88;10.88;;;;;;;;;;8260314;28;20058;-84
2022/04/02 16:31:03;;;;;;;26.15;11.10;;;;;;;;;;8256217;28;20064;-86
2022/04/02 16:35:18;;;;;;;36.75;14.90;;;;;;;;;;8257995;28;20054;-83
2022/04/02 16:39:37;;;;;;;25.48;10.73;;;;;;;;;;8259795;28;20148;-89
2022/04/02 16:43:48;;;;;;;106.15;68.63;;;;;;;;;;8286533;28;20092;-85
2022/04/02 16:47:51;;;;;;;97.43;38.72;;;;;;;;;;8262550;28;20086;-85
2022/04/02 16:52:04;;;;;;;35.90;18.00;;;;;;;;;;8261179;28;20073;-85
2022/04/02 16:56:13;;;;;;;23.65;11.60;;;;;;;;;;8269843;28;20120;-85
2022/04/02 17:00:21;;;;;;;47.83;16.38;;;;;;;;;;8268552;28;20485;-85
2022/04/02 17:04:28;;;;;;;24.30;13.85;;;;;;;;;;8270146;28;20506;-85
2022/04/02 17:08:32;;;;;;;84.05;28.08;;;;;;;;;;8269942;28;20057;-84
2022/04/02 17:12:37;;;;;;;44.83;19.35;;;;;;;;;;8269651;28;20529;-85
2022/04/02 17:16:44;;;;;;;63.40;22.38;;;;;;;;;;8268662;28;20145;-86
2022/04/02 17:20:48;;;;;;;80.38;26.50;;;;;;;;;;8266243;28;20124;-86
2022/04/02 17:25:05;;;;;;;67.15;22.50;;;;;;;;;;8269051;28;20512;-85
2022/04/02 17:29:20;;;;;;;56.67;23.25;;;;;;;;;;8269774;28;20080;-84
2022/04/02 17:33:25;;;;;;;50.20;21.83;;;;;;;;;;8269765;28;20424;-85
2022/04/02 17:37:31;;;;;;;53.60;25.42;;;;;;;;;;8270258;28;20062;-85
2022/04/02 17:41:35;;;;;;;62.20;27.23;;;;;;;;;;8269449;28;20557;-85
2022/04/02 17:45:43;;;;;;;61.50;26.30;;;;;;;;;;8263130;28;20157;-86
2022/04/02 17:49:47;;;;;;;79.43;31.38;;;;;;;;;;8237536;28;20055;-86
2022/04/02 17:53:50;;;;;;;79.13;34.80;;;;;;;;;;8231606;28;20078;-86
2022/04/02 17:58:14;;;;;;;63.00;27.70;;;;;;;;;;8231044;28;20070;-85
2022/04/02 18:02:22;;;;;;;111.45;44.95;;;;;;;;;;8240088;28;20070;-86
2022/04/02 18:06:29;;;;;;;135.10;49.10;;;;;;;;;;8258174;28;20680;-86
2022/04/02 18:10:33;;;;;;;134.15;52.67;;;;;;;;;;8263644;28;20073;-86
2022/04/02 18:14:36;;;;;;;133.82;51.13;;;;;;;;;;8263803;28;20058;-86
2022/04/02 18:18:42;;;;;;;243.13;76.85;;;;;;;;;;8263617;28;20073;-85
2022/04/02 18:22:46;;;;;;;146.02;52.88;;;;;;;;;;8272463;28;20069;-86
2022/04/02 18:26:53;;;;;;;267.67;75.47;;;;;;;;;;8328046;28;20152;-86
2022/04/02 18:30:57;;;;;;;229.40;71.25;;;;;;;;;;8325210;28;20125;-86
2022/04/02 18:35:03;;;;;;;164.90;57.42;;;;;;;;;;8283503;28;20046;-86
2022/04/02 18:39:12;;;;;;;149.30;57.05;;;;;;;;;;8285877;28;20048;-86
2022/04/02 18:43:20;;;;;;;118.20;50.47;;;;;;;;;;8275583;28;20037;-85
2022/04/02 18:47:26;;;;;;;61.55;30.63;;;;;;;;;;8283530;28;20096;-87
2022/04/02 18:51:36;;;;;;;56.60;27.05;;;;;;;;;;8285576;28;20060;-86
2022/04/02 18:55:42;;;;;;;61.47;30.15;;;;;;;;;;8274252;28;20050;-90
2022/04/02 18:59:50;;;;;;;66.43;32.30;;;;;;;;;;8272778;28;20069;-88
2022/04/02 19:04:17;;;;;;;68.60;28.70;;;;;;;;;;8274173;28;20141;-88
2022/04/02 19:08:30;;;;;;;76.78;30.67;;;;;;;;;;8273069;28;20041;-85
2022/04/02 19:12:42;;;;;;;70.90;28.85;;;;;;;;;;8279028;28;20048;-86
2022/04/02 19:17:02;;;;;;;156.05;55.60;;;;;;;;;;8261038;28;20046;-87
2022/04/02 19:21:15;;;;;;;119.70;44.70;;;;;;;;;;8266466;28;20124;-86
2022/04/02 19:25:27;;;;;;;122.10;46.05;;;;;;;;;;8243311;28;20053;-87
2022/04/02 19:29:43;;;;;;;139.32;47.70;;;;;;;;;;8234987;28;20478;-86
2022/04/02 19:33:52;;;;;;;92.05;37.33;;;;;;;;;;8252212;28;20046;-86
2022/04/02 19:37:59;;;;;;;76.40;34.65;;;;;;;;;;8250650;28;20508;-87
2022/04/02 19:42:10;;;;;;;117.93;49.45;;;;;;;;;;8248779;28;20072;-87
2022/04/02 19:46:18;;;;;;;126.97;51.00;;;;;;;;;;8248675;28;20046;-87
2022/04/02 19:50:30;;;;;;;135.45;47.33;;;;;;;;;;8249306;28;20099;-87
2022/04/02 19:54:42;;;;;;;134.07;45.35;;;;;;;;;;8249294;28;20046;-86
2022/04/02 19:58:58;;;;;;;119.03;44.47;;;;;;;;;;8249977;28;20092;-87
2022/04/02 20:03:14;;;;;;;137.82;54.15;;;;;;;;;;8252359;28;20043;-87
2022/04/02 20:12:58;;;;;;;144.85;53.30;;;;;;;;;;8244874;28;20065;-87
2022/04/02 20:18:21;;;;;;;137.98;50.88;;;;;;;;;;8231056;28;20046;-88
2022/04/02 20:22:45;;;;;;;111.05;41.47;;;;;;;;;;8248435;28;20093;-85
2022/04/02 20:26:59;;;;;;;139.73;53.30;;;;;;;;;;8275906;28;20058;-87
2022/04/02 20:31:10;;;;;;;182.85;68.93;;;;;;;;;;8282275;28;20046;-87
2022/04/02 20:35:19;;;;;;;130.65;53.75;;;;;;;;;;8282333;28;20042;-90
2022/04/02 20:39:26;;;;;;;132.45;52.80;;;;;;;;;;8285506;28;20038;-87
2022/04/02 20:43:32;;;;;;;112.68;44.85;;;;;;;;;;8274078;28;20042;-86
2022/04/02 20:47:39;;;;;;;114.18;44.95;;;;;;;;;;8277448;28;20046;-85
2022/04/02 20:51:54;;;;;;;126.65;46.20;;;;;;;;;;8264129;28;20458;-86
2022/04/02 20:56:04;;;;;;;115.32;45.95;;;;;;;;;;8284850;28;20157;-85
2022/04/02 21:00:16;;;;;;;135.73;45.33;;;;;;;;;;8280042;28;20048;-84
2022/04/02 21:04:39;;;;;;;142.20;51.22;;;;;;;;;;8280426;28;20046;-84
2022/04/02 21:08:56;;;;;;;129.40;50.05;;;;;;;;;;8288763;28;20041;-84
2022/04/02 21:13:07;;;;;;;145.43;52.83;;;;;;;;;;8281922;28;20244;-86
2022/04/02 21:17:14;;;;;;;115.60;48.58;;;;;;;;;;8286320;28;20444;-85
2022/04/02 21:21:18;;;;;;;103.68;39.75;;;;;;;;;;8278134;28;20050;-89
2022/04/02 21:25:23;;;;;;;95.53;38.67;;;;;;;;;;8285911;28;20053;-87
2022/04/02 21:29:28;;;;;;;124.95;44.70;;;;;;;;;;8286416;28;20133;-88
2022/04/02 21:33:31;;;;;;;114.28;42.83;;;;;;;;;;8284664;28;20497;-86
2022/04/02 21:37:34;;;;;;;93.88;38.47;;;;;;;;;;8303358;28;20042;-88
2022/04/02 21:41:37;;;;;;;87.18;35.60;;;;;;;;;;8303087;28;20375;-89
2022/04/02 21:45:42;;;;;;;81.30;34.25;;;;;;;;;;8302878;28;20512;-87
2022/04/02 21:49:44;;;;;;;106.50;36.45;;;;;;;;;;8302686;28;20077;-88
2022/04/02 21:53:47;;;;;;;89.70;34.70;;;;;;;;;;8302643;28;20052;-88
2022/04/02 21:57:50;;;;;;;87.55;32.63;;;;;;;;;;8289055;28;20081;-88
2022/04/02 22:38:41;;;;;;;37.15;17.17;;;;;;;;;;7877809;30;20148;-88
2022/04/02 22:42:52;;;;;;;37.40;17.63;;;;;;;;;;7854031;30;20058;-87
2022/04/02 22:47:01;;;;;;;38.35;17.00;;;;;;;;;;7873886;30;20437;-86
2022/04/02 22:51:15;;;;;;;35.67;15.80;;;;;;;;;;7865526;30;20060;-86
2022/04/02 22:55:22;;;;;;;41.47;18.63;;;;;;;;;;7960815;29;20122;-86
2022/04/02 23:00:04;;;;;;;23.40;12.88;;;;;;;;;;8240783;28;20402;-87
2022/04/02 23:04:25;;;;;;;31.75;13.10;;;;;;;;;;8251323;28;20055;-86
2022/04/02 23:13:33;;;;;;;24.95;10.55;;;;;;;;;;8231941;28;20046;-88
2022/04/02 23:17:36;;;;;;;18.20;9.20;;;;;;;;;;8267155;28;20038;-88
2022/04/02 23:21:39;;;;;;;21.67;8.65;;;;;;;;;;8267505;28;20070;-84
2022/04/02 23:25:42;;;;;;;19.83;8.75;;;;;;;;;;8266866;28;20046;-86
2022/04/02 23:29:46;;;;;;;13.80;7.15;;;;;;;;;;8266752;28;20042;-87
2022/04/02 23:33:48;;;;;;;24.90;8.40;;;;;;;;;;8271351;28;20050;-84
2022/04/02 23:37:51;;;;;;;17.75;7.45;;;;;;;;;;8299481;28;20042;-86
2022/04/02 23:41:54;;;;;;;15.23;6.82;;;;;;;;;;8299693;28;20045;-86
2022/04/02 23:45:58;;;;;;;14.68;6.43;;;;;;;;;;8299380;28;20474;-86
2022/04/02 23:50:01;;;;;;;10.55;6.28;;;;;;;;;;8298441;28;20092;-87
2022/04/02 23:54:04;;;;;;;10.50;5.28;;;;;;;;;;8298982;28;20064;-87
2022/04/02 23:58:06;;;;;;;11.70;5.70;;;;;;;;;;8298853;28;20045;-86
